Time;durP1;ratioP1;P1;durP2;ratioP2;P2;SDS_P1;SDS_P2;PMS_P1;PMS_P2;Temp;Humidity;BMP_temperature;BMP_pressure;BME280_temperature;BME280_humidity;BME280_pressure;Samples;Min_cycle;Max_cycle;Signal;HPM_P1;HPM_P2
2023/05/17 10:15:17;;;;;;;3.20;2.35;;;;;;;;;;3831378;37;43959;-62
2023/05/17 10:18:30;;;;;;;3.58;2.40;;;;;;;;;;4388475;32;59794;-62
2023/05/17 10:21:18;;;;;;;3.60;2.72;;;;;;;;;;4396385;32;70413;-63
2023/05/17 10:28:06;;;;;;;6.15;2.70;;;;;;;;;;4402289;32;68254;-63
2023/05/17 10:30:54;;;;;;;4.90;2.70;;;;;;;;;;4382916;32;71981;-63
2023/05/17 10:34:35;;;;;;;4.93;2.47;;;;;;;;;;4385652;32;67980;-63
2023/05/17 10:37:23;;;;;;;5.07;2.70;;;;;;;;;;4395608;32;65990;-64
2023/05/17 10:40:12;;;;;;;3.45;2.30;;;;;;;;;;4374837;32;59062;-63
2023/05/17 10:42:59;;;;;;;4.57;2.65;;;;;;;;;;4392888;32;72968;-64
2023/05/17 10:45:48;;;;;;;5.57;2.78;;;;;;;;;;4396269;32;66791;-61
2023/05/17 10:48:35;;;;;;;;;;;;;;;;;;4396496;32;67792;-63
2023/05/17 10:51:32;;;;;;;3.75;2.80;;;;;;;;;;4396983;32;59616;-62
2023/05/17 10:54:19;;;;;;;6.22;2.70;;;;;;;;;;4385073;32;69288;-61
2023/05/17 10:57:07;;;;;;;9.57;2.70;;;;;;;;;;4391105;32;69523;-62
2023/05/17 10:59:58;;;;;;;5.43;2.53;;;;;;;;;;4404628;32;67072;-61
2023/05/17 11:02:47;;;;;;;7.20;2.60;;;;;;;;;;4386336;32;72371;-62
2023/05/17 11:05:34;;;;;;;4.82;2.58;;;;;;;;;;4407779;32;66092;-63
2023/05/17 11:08:21;;;;;;;3.15;2.40;;;;;;;;;;4410573;32;69164;-61
2023/05/17 11:11:17;;;;;;;4.82;2.58;;;;;;;;;;4393695;32;67804;-62
2023/05/17 11:14:05;;;;;;;5.87;3.80;;;;;;;;;;4374575;32;70724;-60
2023/05/17 11:16:56;;;;;;;4.62;2.83;;;;;;;;;;4382184;32;66266;-61
2023/05/17 11:20:28;;;;;;;5.70;2.90;;;;;;;;;;4379874;32;68526;-61
2023/05/17 11:23:19;;;;;;;8.00;2.83;;;;;;;;;;4378242;32;59255;-60
2023/05/17 11:26:22;;;;;;;5.18;2.90;;;;;;;;;;4390466;32;69697;-61
2023/05/17 11:29:10;;;;;;;4.20;3.10;;;;;;;;;;4370570;32;68243;-60
2023/05/17 11:31:56;;;;;;;5.35;3.05;;;;;;;;;;4378142;32;67123;-62
2023/05/17 11:34:43;;;;;;;;;;;;;;;;;;4351045;32;59134;-61
2023/05/17 11:37:30;;;;;;;3.83;2.87;;;;;;;;;;4370740;32;69507;-62
2023/05/17 11:40:27;;;;;;;4.40;2.80;;;;;;;;;;4357865;32;67949;-61
2023/05/17 11:43:14;;;;;;;7.15;3.03;;;;;;;;;;4368320;32;67071;-62
2023/05/17 11:46:02;;;;;;;4.62;2.53;;;;;;;;;;4357447;32;70750;-61
2023/05/17 11:48:51;;;;;;;4.80;2.58;;;;;;;;;;4368255;32;66440;-62
2023/05/17 11:51:38;;;;;;;5.22;2.72;;;;;;;;;;4368051;32;66598;-61
2023/05/17 11:54:25;;;;;;;5.45;2.35;;;;;;;;;;4357869;32;60153;-62
2023/05/17 11:57:15;;;;;;;4.00;2.78;;;;;;;;;;4358504;32;69661;-61
2023/05/17 12:00:04;;;;;;;4.07;2.55;;;;;;;;;;4358910;32;65507;-62
2023/05/17 12:03:10;;;;;;;4.93;3.05;;;;;;;;;;4348781;32;66628;-61
2023/05/17 12:06:14;;;;;;;8.30;3.05;;;;;;;;;;4346689;32;57951;-62
2023/05/17 12:09:02;;;;;;;9.18;3.08;;;;;;;;;;4357966;32;69589;-61
2023/05/17 12:11:49;;;;;;;6.70;2.72;;;;;;;;;;4367918;32;68498;-60
2023/05/17 12:14:35;;;;;;;5.53;2.22;;;;;;;;;;4357201;32;67788;-61
2023/05/17 12:17:30;;;;;;;6.47;2.62;;;;;;;;;;4367762;32;70519;-62
2023/05/17 12:20:17;;;;;;;6.85;2.28;;;;;;;;;;4357190;32;65591;-61
2023/05/17 12:23:04;;;;;;;7.32;2.75;;;;;;;;;;4347204;32;67525;-60
2023/05/17 12:25:51;;;;;;;5.60;2.75;;;;;;;;;;4356127;32;65404;-61
2023/05/17 12:28:44;;;;;;;5.40;2.83;;;;;;;;;;4346300;32;72600;-61
2023/05/17 12:31:34;;;;;;;6.65;2.70;;;;;;;;;;4357268;32;66609;-61
2023/05/17 12:34:22;;;;;;;3.80;2.30;;;;;;;;;;4356421;32;67902;-60
2023/05/17 12:37:11;;;;;;;6.93;3.00;;;;;;;;;;4368661;32;59225;-61
2023/05/17 12:40:03;;;;;;;8.68;2.90;;;;;;;;;;4357371;32;70512;-61
2023/05/17 12:42:50;;;;;;;3.72;2.78;;;;;;;;;;4346761;32;70153;-61
2023/05/17 12:45:40;;;;;;;5.28;2.25;;;;;;;;;;4345973;32;67377;-62
2023/05/17 12:48:27;;;;;;;7.62;2.78;;;;;;;;;;4345857;32;60721;-61
2023/05/17 12:51:15;;;;;;;4.95;2.70;;;;;;;;;;4356663;32;70425;-61
2023/05/17 12:54:01;;;;;;;5.12;2.53;;;;;;;;;;4367309;32;68925;-62
2023/05/17 12:56:48;;;;;;;7.95;2.33;;;;;;;;;;4346444;32;66849;-62
2023/05/17 12:59:35;;;;;;;;;;;;;;;;;;4357069;32;71494;-61
2023/05/17 13:02:23;;;;;;;3.45;2.08;;;;;;;;;;4367057;32;68109;-60
2023/05/17 13:05:21;;;;;;;3.10;2.10;;;;;;;;;;4356683;32;67313;-62
2023/05/17 13:08:21;;;;;;;4.12;2.00;;;;;;;;;;4367530;32;59040;-62
2023/05/17 13:11:12;;;;;;;4.15;2.17;;;;;;;;;;4366993;32;70599;-61
2023/05/17 13:13:59;;;;;;;4.32;2.03;;;;;;;;;;4366692;32;66570;-61
2023/05/17 13:16:46;;;;;;;6.47;2.42;;;;;;;;;;4367395;32;66802;-61
2023/05/17 13:19:34;;;;;;;6.78;2.20;;;;;;;;;;4368597;32;61281;-62
2023/05/17 13:22:21;;;;;;;5.85;2.60;;;;;;;;;;4366905;32;71063;-62
2023/05/17 13:25:08;;;;;;;3.58;2.00;;;;;;;;;;4366975;32;69284;-61
2023/05/17 13:27:54;;;;;;;3.65;2.35;;;;;;;;;;4356821;32;66773;-59
2023/05/17 13:30:48;;;;;;;5.68;2.20;;;;;;;;;;4367080;32;71622;-61
2023/05/17 13:33:35;;;;;;;3.10;1.90;;;;;;;;;;4357328;32;65452;-60
2023/05/17 13:36:21;;;;;;;;;;;;;;;;;;4356493;32;68116;-60
2023/05/17 13:39:08;;;;;;;3.83;2.20;;;;;;;;;;4377291;32;67263;-61
2023/05/17 13:41:55;;;;;;;2.28;1.62;;;;;;;;;;4366800;32;70703;-60
2023/05/17 13:44:44;;;;;;;6.97;2.05;;;;;;;;;;4367987;32;66316;-62
2023/05/17 13:47:31;;;;;;;4.20;1.73;;;;;;;;;;4366597;32;66627;-61
2023/05/17 13:50:19;;;;;;;;;;;;;;;;;;4356721;32;60174;-60
2023/05/17 13:53:07;;;;;;;6.18;2.72;;;;;;;;;;4367019;32;69855;-60
2023/05/17 13:55:53;;;;;;;;;;;;;;;;;;4366375;32;68866;-61
2023/05/17 13:58:40;;;;;;;5.70;2.03;;;;;;;;;;4368078;32;66816;-60
2023/05/17 14:01:26;;;;;;;3.78;1.98;;;;;;;;;;4356560;32;71684;-62
2023/05/17 14:04:13;;;;;;;;;;;;;;;;;;4367006;32;70461;-62
2023/05/17 14:07:00;;;;;;;4.65;2.03;;;;;;;;;;4368013;32;69654;-60
2023/05/17 14:09:47;;;;;;;2.62;2.03;;;;;;;;;;4355945;32;68068;-62
2023/05/17 14:12:36;;;;;;;5.97;2.50;;;;;;;;;;4366690;32;71844;-60
2023/05/17 14:15:26;;;;;;;3.58;2.17;;;;;;;;;;4366607;32;65574;-61
2023/05/17 14:18:12;;;;;;;5.68;2.45;;;;;;;;;;4366563;32;67577;-61
2023/05/17 14:21:00;;;;;;;4.90;2.20;;;;;;;;;;4345886;32;59974;-62
2023/05/17 14:23:46;;;;;;;4.50;2.00;;;;;;;;;;4366260;32;70395;-61
2023/05/17 14:26:33;;;;;;;3.03;2.00;;;;;;;;;;4366325;32;68694;-61
2023/05/17 14:29:20;;;;;;;5.90;2.47;;;;;;;;;;4355405;32;67160;-61
2023/05/17 14:32:07;;;;;;;;;;;;;;;;;;4346242;32;60642;-61
2023/05/17 14:34:53;;;;;;;5.28;3.15;;;;;;;;;;4366634;32;69214;-60
2023/05/17 14:37:40;;;;;;;5.68;2.80;;;;;;;;;;4355025;32;68994;-62
2023/05/17 14:40:26;;;;;;;4.53;2.35;;;;;;;;;;4345299;32;66901;-61
2023/05/17 14:43:13;;;;;;;6.12;2.58;;;;;;;;;;4366285;32;72010;-61
2023/05/17 14:46:00;;;;;;;5.85;2.47;;;;;;;;;;4357540;32;66653;-61
2023/05/17 14:48:47;;;;;;;;;;;;;;;;;;4366933;32;67767;-61
2023/05/17 14:51:34;;;;;;;5.07;2.55;;;;;;;;;;4377241;32;59011;-62
2023/05/17 14:54:21;;;;;;;5.28;2.20;;;;;;;;;;4355856;32;71966;-61
2023/05/17 14:57:07;;;;;;;4.55;2.30;;;;;;;;;;4366388;32;65495;-61
2023/05/17 14:59:55;;;;;;;3.85;1.67;;;;;;;;;;4355271;32;68363;-61
2023/05/17 15:02:41;;;;;;;3.70;2.12;;;;;;;;;;4347784;32;59774;-60
2023/05/17 15:05:28;;;;;;;4.55;2.05;;;;;;;;;;4369908;32;70819;-60
2023/05/17 15:08:14;;;;;;;2.72;1.87;;;;;;;;;;4347571;32;68551;-61
2023/05/17 15:11:00;;;;;;;;;;;;;;;;;;4347373;32;65615;-61
2023/05/17 15:13:47;;;;;;;5.18;2.12;;;;;;;;;;4370168;32;71907;-61
2023/05/17 15:16:34;;;;;;;3.78;2.50;;;;;;;;;;4368473;32;69504;-61
2023/05/17 15:19:21;;;;;;;5.70;2.60;;;;;;;;;;4368569;32;68835;-63
2023/05/17 15:22:08;;;;;;;4.55;2.17;;;;;;;;;;4358046;32;66606;-62
2023/05/17 15:24:56;;;;;;;4.00;2.20;;;;;;;;;;4371303;32;72078;-62
2023/05/17 15:27:43;;;;;;;5.57;2.60;;;;;;;;;;4368650;32;65550;-62
2023/05/17 15:30:29;;;;;;;4.32;2.50;;;;;;;;;;4347467;32;67037;-62
2023/05/17 15:33:16;;;;;;;5.62;2.03;;;;;;;;;;4357811;32;61130;-61
2023/05/17 15:36:03;;;;;;;;;;;;;;;;;;4358182;32;69505;-62
2023/05/17 15:38:49;;;;;;;3.60;2.00;;;;;;;;;;4356941;32;69834;-61
2023/05/17 15:41:36;;;;;;;2.40;1.80;;;;;;;;;;4357780;32;68213;-61
2023/05/17 15:44:24;;;;;;;4.32;2.15;;;;;;;;;;4368776;32;60001;-62
2023/05/17 15:47:10;;;;;;;;;;;;;;;;;;4358166;32;70698;-60
2023/05/17 15:49:57;;;;;;;4.80;2.60;;;;;;;;;;4367880;32;70282;-61
2023/05/17 15:52:46;;;;;;;;;;;;;;;;;;4347585;32;66967;-62
2023/05/17 15:55:32;;;;;;;4.15;2.70;;;;;;;;;;4369243;32;70873;-62
2023/05/17 15:58:31;;;;;;;4.87;2.80;;;;;;;;;;4357326;32;65487;-60
2023/05/17 16:01:21;;;;;;;4.57;2.50;;;;;;;;;;4346851;32;68173;-61
2023/05/17 16:04:08;;;;;;;5.55;2.65;;;;;;;;;;4357675;32;60251;-60
2023/05/17 16:06:54;;;;;;;5.45;3.10;;;;;;;;;;4358435;32;72266;-60
2023/05/17 16:09:41;;;;;;;7.00;3.42;;;;;;;;;;4357555;32;66638;-63
2023/05/17 16:12:28;;;;;;;6.07;3.10;;;;;;;;;;4369326;32;67916;-61
2023/05/17 16:15:14;;;;;;;;;;;;;;;;;;4367869;32;61307;-62
2023/05/17 16:18:01;;;;;;;4.75;3.28;;;;;;;;;;4357732;32;70286;-61
2023/05/17 16:21:01;;;;;;;6.05;3.35;;;;;;;;;;4357680;32;69232;-63
2023/05/17 16:23:48;;;;;;;7.18;4.30;;;;;;;;;;4359126;32;67028;-60
2023/05/17 16:26:35;;;;;;;7.60;3.78;;;;;;;;;;4346610;32;72329;-62
2023/05/17 16:29:21;;;;;;;8.15;3.97;;;;;;;;;;4347366;32;67052;-62
2023/05/17 16:32:08;;;;;;;12.73;4.30;;;;;;;;;;4357602;32;68296;-61
2023/05/17 16:34:55;;;;;;;;;;;;;;;;;;4368928;32;66607;-62
2023/05/17 16:37:42;;;;;;;7.45;3.58;;;;;;;;;;4370404;32;71870;-61
2023/05/17 16:40:28;;;;;;;13.02;3.45;;;;;;;;;;4358585;32;66645;-61
2023/05/17 16:43:15;;;;;;;;;;;;;;;;;;4368454;32;67339;-62
2023/05/17 16:46:02;;;;;;;9.20;4.37;;;;;;;;;;4373233;32;59230;-61
2023/05/17 16:48:49;;;;;;;7.87;4.60;;;;;;;;;;4373828;32;70780;-62
2023/05/17 16:51:35;;;;;;;8.55;4.05;;;;;;;;;;4362660;32;68692;-66
2023/05/17 16:54:22;;;;;;;;;;;;;;;;;;4347853;32;66894;-61
2023/05/17 16:57:08;;;;;;;10.55;4.20;;;;;;;;;;4356443;32;60052;-62
2023/05/17 16:59:55;;;;;;;8.30;4.12;;;;;;;;;;4356777;32;70829;-60
2023/05/17 17:02:44;;;;;;;10.45;4.28;;;;;;;;;;4368639;32;68520;-61
2023/05/17 17:05:31;;;;;;;12.60;5.22;;;;;;;;;;4345987;32;66122;-62
2023/05/17 17:08:18;;;;;;;17.08;6.72;;;;;;;;;;4357085;32;72063;-61
2023/05/17 17:11:04;;;;;;;;;;;;;;;;;;4362676;32;66783;-63
2023/05/17 17:13:51;;;;;;;9.68;5.25;;;;;;;;;;4383016;32;68132;-63
2023/05/17 17:16:38;;;;;;;16.02;6.28;;;;;;;;;;4380820;32;59374;-61
2023/05/17 17:19:25;;;;;;;9.10;5.57;;;;;;;;;;4345696;32;70623;-62
2023/05/17 17:22:13;;;;;;;9.82;5.47;;;;;;;;;;4367378;32;66238;-62
2023/05/17 17:25:00;;;;;;;11.00;5.30;;;;;;;;;;4356024;32;68436;-62
2023/05/17 17:27:46;;;;;;;12.35;6.62;;;;;;;;;;4367437;32;59485;-61
2023/05/17 17:30:33;;;;;;;10.77;5.95;;;;;;;;;;4367250;32;69339;-62
2023/05/17 17:33:20;;;;;;;9.88;5.18;;;;;;;;;;4345651;32;69978;-62
2023/05/17 17:36:07;;;;;;;;;;;;;;;;;;4345612;32;68844;-62
2023/05/17 17:38:54;;;;;;;11.10;5.37;;;;;;;;;;4377858;32;71673;-62
2023/05/17 17:41:41;;;;;;;9.35;5.75;;;;;;;;;;4368511;32;66552;-61
2023/05/17 17:44:28;;;;;;;11.90;5.65;;;;;;;;;;4356518;32;68629;-62
2023/05/17 17:47:15;;;;;;;;;;;;;;;;;;4356872;32;66657;-62
2023/05/17 17:50:02;;;;;;;8.50;4.57;;;;;;;;;;4356602;32;72058;-62
2023/05/17 17:52:50;;;;;;;9.40;3.75;;;;;;;;;;4356433;32;65471;-61
2023/05/17 17:55:37;;;;;;;7.03;3.58;;;;;;;;;;4356321;32;68288;-62
2023/05/17 17:58:23;;;;;;;7.93;3.70;;;;;;;;;;4346185;32;59169;-62
2023/05/17 18:01:10;;;;;;;7.00;3.87;;;;;;;;;;4366637;32;70282;-62
2023/05/17 18:03:57;;;;;;;;;;;;;;;;;;4367048;32;68659;-61
2023/05/17 18:06:44;;;;;;;5.70;3.37;;;;;;;;;;4368119;32;67656;-61
2023/05/17 18:09:31;;;;;;;8.90;3.95;;;;;;;;;;4356393;32;60136;-62
2023/05/17 18:12:17;;;;;;;;;;;;;;;;;;4355504;32;71682;-61
2023/05/17 18:15:05;;;;;;;6.87;3.83;;;;;;;;;;4355592;32;69238;-62
2023/05/17 18:17:53;;;;;;;8.93;4.55;;;;;;;;;;4366399;32;66876;-61
2023/05/17 18:20:40;;;;;;;9.45;3.97;;;;;;;;;;4356223;32;71749;-62
2023/05/17 18:23:26;;;;;;;7.93;4.12;;;;;;;;;;4366414;32;66373;-61
2023/05/17 18:26:13;;;;;;;6.65;4.00;;;;;;;;;;4355812;32;68043;-62
2023/05/17 18:29:00;;;;;;;;;;;;;;;;;;4345862;32;59085;-62
2023/05/17 18:31:47;;;;;;;7.50;4.03;;;;;;;;;;4365848;32;70311;-63
2023/05/17 18:34:33;;;;;;;8.07;4.40;;;;;;;;;;4366350;32;66517;-61
2023/05/17 18:37:21;;;;;;;7.30;4.22;;;;;;;;;;4337045;32;68399;-61
2023/05/17 18:40:08;;;;;;;9.10;4.35;;;;;;;;;;4358726;32;59025;-61
2023/05/17 18:42:54;;;;;;;9.88;4.22;;;;;;;;;;4358389;32;70471;-61
2023/05/17 18:45:41;;;;;;;8.02;3.90;;;;;;;;;;4370407;32;69765;-61
2023/05/17 18:48:28;;;;;;;6.50;4.03;;;;;;;;;;4347997;32;66596;-62
2023/05/17 18:51:14;;;;;;;6.95;4.55;;;;;;;;;;4368733;32;71696;-61
2023/05/17 18:54:02;;;;;;;9.63;3.90;;;;;;;;;;4357600;32;67203;-62
2023/05/17 18:56:51;;;;;;;8.65;4.28;;;;;;;;;;4348411;32;67914;-62
2023/05/17 18:59:38;;;;;;;;;;;;;;;;;;4357786;32;67438;-62
2023/05/17 19:02:24;;;;;;;6.70;4.50;;;;;;;;;;4358119;32;71442;-62
2023/05/17 19:05:11;;;;;;;7.90;4.82;;;;;;;;;;4368808;32;66718;-62
2023/05/17 19:07:58;;;;;;;9.43;4.93;;;;;;;;;;4358099;32;68204;-63
2023/05/17 19:10:45;;;;;;;9.07;4.45;;;;;;;;;;4368931;32;60030;-62
2023/05/17 19:13:32;;;;;;;10.07;4.85;;;;;;;;;;4356804;32;71261;-62
2023/05/17 19:16:19;;;;;;;10.00;5.18;;;;;;;;;;4357751;32;69570;-62
2023/05/17 19:19:06;;;;;;;6.72;4.03;;;;;;;;;;4367989;32;68410;-62
2023/05/17 19:21:54;;;;;;;9.82;4.75;;;;;;;;;;4336791;32;70647;-61
2023/05/17 19:24:40;;;;;;;;;;;;;;;;;;4358349;32;70189;-62
2023/05/17 19:27:27;;;;;;;8.25;4.80;;;;;;;;;;4379247;32;69731;-62
2023/05/17 19:30:14;;;;;;;9.63;3.70;;;;;;;;;;4357310;32;65515;-62
2023/05/17 19:33:01;;;;;;;7.80;4.70;;;;;;;;;;4357807;32;70975;-62
2023/05/17 19:35:48;;;;;;;8.75;4.28;;;;;;;;;;4359805;32;66311;-62
2023/05/17 19:38:35;;;;;;;7.85;4.05;;;;;;;;;;4359777;32;68042;-61
2023/05/17 19:41:22;;;;;;;7.45;4.57;;;;;;;;;;4368453;32;60521;-62
2023/05/17 19:44:10;;;;;;;9.57;4.95;;;;;;;;;;4357893;32;69493;-62
2023/05/17 19:46:56;;;;;;;10.70;4.22;;;;;;;;;;4357465;32;69198;-62
2023/05/17 19:49:44;;;;;;;12.27;4.85;;;;;;;;;;4346387;32;67624;-61
2023/05/17 19:52:30;;;;;;;8.73;4.80;;;;;;;;;;4368299;32;60044;-62
2023/05/17 19:55:25;;;;;;;10.52;4.97;;;;;;;;;;4368046;32;70536;-62
2023/05/17 19:58:11;;;;;;;8.55;5.12;;;;;;;;;;4347507;32;68282;-62
2023/05/17 20:00:58;;;;;;;8.65;4.47;;;;;;;;;;4369246;32;67819;-62
2023/05/17 20:03:44;;;;;;;;;;;;;;;;;;4356988;32;72468;-62
2023/05/17 20:06:31;;;;;;;9.40;4.68;;;;;;;;;;4368128;32;66771;-61
2023/05/17 20:09:18;;;;;;;9.35;4.50;;;;;;;;;;4368306;32;68149;-62
2023/05/17 20:12:05;;;;;;;;;;;;;;;;;;4369351;32;66660;-62
2023/05/17 20:14:53;;;;;;;7.90;4.62;;;;;;;;;;4367287;32;70800;-61
2023/05/17 20:17:39;;;;;;;9.90;5.30;;;;;;;;;;4348557;32;65396;-62
2023/05/17 20:20:26;;;;;;;9.55;5.05;;;;;;;;;;4367970;32;66949;-62
2023/05/17 20:23:13;;;;;;;11.70;5.80;;;;;;;;;;4346887;32;60218;-61
2023/05/17 20:26:00;;;;;;;10.77;5.20;;;;;;;;;;4357047;32;70379;-62
2023/05/17 20:28:46;;;;;;;11.27;6.32;;;;;;;;;;4367508;32;68273;-63
2023/05/17 20:31:33;;;;;;;;;;;;;;;;;;4346973;32;67808;-60
2023/05/17 20:34:19;;;;;;;13.73;6.07;;;;;;;;;;4356863;32;71386;-63
2023/05/17 20:37:06;;;;;;;11.25;5.72;;;;;;;;;;4356744;32;69665;-61
2023/05/17 20:39:56;;;;;;;11.57;6.32;;;;;;;;;;4346384;32;69291;-62
2023/05/17 20:42:44;;;;;;;11.05;5.93;;;;;;;;;;4346799;32;66789;-62
2023/05/17 20:45:32;;;;;;;14.20;7.10;;;;;;;;;;4346562;32;71903;-62
2023/05/17 20:48:19;;;;;;;10.60;6.53;;;;;;;;;;4368207;32;66216;-62
2023/05/17 20:51:06;;;;;;;;;;;;;;;;;;4359870;32;66795;-64
2023/05/17 20:53:53;;;;;;;11.15;6.37;;;;;;;;;;4361908;32;60492;-61
2023/05/17 20:56:39;;;;;;;15.77;7.12;;;;;;;;;;4363602;32;69565;-61
2023/05/17 20:59:26;;;;;;;13.00;6.40;;;;;;;;;;4374320;32;69377;-62
2023/05/17 21:02:12;;;;;;;10.55;6.78;;;;;;;;;;4351173;32;67940;-62
2023/05/17 21:04:59;;;;;;;11.70;6.90;;;;;;;;;;4374233;32;60953;-61
2023/05/17 21:07:46;;;;;;;14.23;8.13;;;;;;;;;;4358876;32;70028;-62
2023/05/17 21:10:34;;;;;;;11.68;7.15;;;;;;;;;;4358280;32;68148;-62
2023/05/17 21:13:22;;;;;;;13.52;8.00;;;;;;;;;;4366730;32;67772;-61
2023/05/17 21:16:10;;;;;;;11.20;6.87;;;;;;;;;;4356555;32;70817;-62
2023/05/17 21:18:56;;;;;;;13.65;8.45;;;;;;;;;;4367003;32;66413;-62
2023/05/17 21:21:43;;;;;;;13.70;8.38;;;;;;;;;;4367037;32;66947;-63
2023/05/17 21:24:30;;;;;;;14.43;8.77;;;;;;;;;;4355942;32;61272;-62
2023/05/17 21:27:17;;;;;;;16.52;9.23;;;;;;;;;;4345234;32;72556;-61
2023/05/17 21:30:04;;;;;;;19.35;8.88;;;;;;;;;;4366808;32;65645;-62
2023/05/17 21:32:51;;;;;;;13.50;9.23;;;;;;;;;;4356271;32;67753;-61
2023/05/17 21:35:38;;;;;;;15.73;8.80;;;;;;;;;;4356645;32;60152;-62
2023/05/17 21:38:25;;;;;;;15.80;9.27;;;;;;;;;;4356215;32;70739;-62
2023/05/17 21:41:11;;;;;;;15.90;8.77;;;;;;;;;;4366875;32;69435;-62
2023/05/17 21:43:58;;;;;;;16.95;9.55;;;;;;;;;;4366941;32;67642;-62
2023/05/17 21:46:44;;;;;;;15.98;10.30;;;;;;;;;;4367870;32;71645;-62
2023/05/17 21:49:31;;;;;;;;;;;;;;;;;;4357057;32;66509;-61
2023/05/17 21:52:18;;;;;;;15.90;9.15;;;;;;;;;;4370622;32;69232;-62
2023/05/17 21:55:05;;;;;;;16.20;9.88;;;;;;;;;;4370436;32;68186;-61
2023/05/17 21:57:52;;;;;;;18.10;10.05;;;;;;;;;;4364190;32;71110;-61
2023/05/17 22:00:39;;;;;;;15.73;9.40;;;;;;;;;;4355366;32;66485;-61
2023/05/17 22:03:26;;;;;;;15.98;9.80;;;;;;;;;;4356584;32;67960;-60
2023/05/17 22:06:12;;;;;;;17.55;10.38;;;;;;;;;;4345738;32;59789;-62
2023/05/17 22:08:59;;;;;;;15.52;10.13;;;;;;;;;;4366245;32;69623;-62
2023/05/17 22:11:46;;;;;;;19.12;10.98;;;;;;;;;;4345363;32;68022;-61
2023/05/17 22:14:33;;;;;;;17.42;9.98;;;;;;;;;;4366048;32;66726;-62
2023/05/17 22:17:32;;;;;;;18.55;10.73;;;;;;;;;;4366586;32;60520;-61
2023/05/17 22:20:22;;;;;;;20.58;10.90;;;;;;;;;;4366326;32;70572;-61
2023/05/17 22:23:08;;;;;;;17.27;11.55;;;;;;;;;;4355348;32;68819;-63
2023/05/17 22:25:58;;;;;;;19.62;11.77;;;;;;;;;;4366416;32;66654;-62
2023/05/17 22:28:45;;;;;;;20.75;12.68;;;;;;;;;;4345720;32;71828;-62
2023/05/17 22:31:36;;;;;;;18.98;11.25;;;;;;;;;;4368231;32;66478;-61
2023/05/17 22:34:23;;;;;;;19.90;11.82;;;;;;;;;;4365569;32;68605;-62
2023/05/17 22:37:11;;;;;;;20.85;12.00;;;;;;;;;;4367865;32;59321;-62
2023/05/17 22:39:57;;;;;;;18.98;11.63;;;;;;;;;;4345114;32;71149;-63
2023/05/17 22:42:43;;;;;;;19.58;12.27;;;;;;;;;;4355081;32;67479;-63
2023/05/17 22:45:31;;;;;;;19.15;11.45;;;;;;;;;;4366266;32;67925;-62
2023/05/17 22:48:21;;;;;;;20.55;11.75;;;;;;;;;;4355913;32;59302;-62
2023/05/17 22:51:07;;;;;;;18.77;11.15;;;;;;;;;;4355093;32;69148;-61
2023/05/17 22:53:55;;;;;;;17.62;11.38;;;;;;;;;;4345086;32;68346;-62
2023/05/17 22:56:42;;;;;;;20.62;10.80;;;;;;;;;;4355442;32;66442;-62
2023/05/17 22:59:29;;;;;;;19.23;10.75;;;;;;;;;;4366975;32;71339;-62
2023/05/17 23:02:15;;;;;;;17.48;11.02;;;;;;;;;;4355092;32;66878;-62
2023/05/17 23:05:03;;;;;;;19.90;12.13;;;;;;;;;;4355565;32;69180;-62
2023/05/17 23:07:52;;;;;;;19.30;12.35;;;;;;;;;;4365771;32;66633;-62
2023/05/17 23:10:39;;;;;;;21.80;12.55;;;;;;;;;;4365529;32;71351;-61
2023/05/17 23:13:25;;;;;;;20.80;12.93;;;;;;;;;;4355025;32;66668;-62
2023/05/17 23:16:12;;;;;;;19.85;12.63;;;;;;;;;;4344979;32;67979;-62
2023/05/17 23:19:02;;;;;;;21.90;12.55;;;;;;;;;;4368098;32;59410;-62
2023/05/17 23:21:49;;;;;;;22.92;13.55;;;;;;;;;;4355963;32;70756;-61
2023/05/17 23:24:37;;;;;;;25.60;13.40;;;;;;;;;;4357964;32;69290;-63
2023/05/17 23:27:26;;;;;;;22.45;13.40;;;;;;;;;;4357732;32;67658;-61
2023/05/17 23:30:12;;;;;;;22.92;13.05;;;;;;;;;;4347692;32;59930;-62
2023/05/17 23:33:01;;;;;;;19.40;13.32;;;;;;;;;;4357740;32;70446;-62
2023/05/17 23:35:48;;;;;;;24.05;13.77;;;;;;;;;;4369467;32;69483;-61
2023/05/17 23:38:34;;;;;;;21.95;13.73;;;;;;;;;;4357705;32;67603;-62
2023/05/17 23:41:24;;;;;;;22.98;14.57;;;;;;;;;;4356582;32;72245;-62
2023/05/17 23:44:11;;;;;;;23.75;14.30;;;;;;;;;;4368197;32;66324;-62
2023/05/17 23:46:58;;;;;;;24.60;14.57;;;;;;;;;;4367412;32;68832;-61
2023/05/17 23:49:45;;;;;;;24.37;14.57;;;;;;;;;;4357268;32;60170;-61
2023/05/17 23:52:38;;;;;;;22.80;14.18;;;;;;;;;;4346307;32;70176;-61
2023/05/17 23:55:26;;;;;;;26.30;16.10;;;;;;;;;;4347225;32;66526;-61
2023/05/17 23:58:12;;;;;;;22.90;14.85;;;;;;;;;;4368116;32;66969;-62
